createdAt,value
2023-01-19T00:00:18.375Z,989.72
2023-01-19T00:01:18.360Z,989.72
2023-01-19T00:02:18.310Z,989.70
2023-01-19T00:03:18.312Z,989.67
2023-01-19T00:04:18.293Z,989.68
2023-01-19T00:05:18.276Z,989.67
2023-01-19T00:06:18.408Z,989.66
2023-01-19T00:07:18.255Z,989.67
2023-01-19T00:08:18.251Z,989.70
2023-01-19T00:09:18.262Z,989.68
2023-01-19T00:10:18.228Z,989.67
2023-01-19T00:11:18.191Z,989.67
2023-01-19T00:12:18.191Z,989.70
2023-01-19T00:13:18.191Z,989.69
2023-01-19T00:14:18.151Z,989.71
2023-01-19T00:15:18.151Z,989.71
2023-01-19T00:16:18.208Z,989.73
2023-01-19T00:17:18.119Z,989.74
2023-01-19T00:18:18.203Z,989.75
2023-01-19T00:19:18.095Z,989.79
2023-01-19T00:20:18.097Z,989.79
2023-01-19T00:21:18.170Z,989.77
2023-01-19T00:22:18.092Z,989.75
2023-01-19T00:23:18.061Z,989.74
2023-01-19T00:24:18.034Z,989.74
2023-01-19T00:25:18.076Z,989.74
2023-01-19T00:26:18.022Z,989.74
2023-01-19T00:27:17.989Z,989.78
2023-01-19T00:28:18.006Z,989.77
2023-01-19T00:29:17.974Z,989.85
2023-01-19T00:30:17.948Z,989.83
2023-01-19T00:31:17.981Z,989.87
2023-01-19T00:32:17.917Z,989.91
2023-01-19T00:33:17.936Z,989.93
2023-01-19T00:34:17.898Z,989.96
2023-01-19T00:35:17.906Z,989.97
2023-01-19T00:36:17.868Z,989.99
2023-01-19T00:37:17.858Z,989.99
2023-01-19T00:38:17.859Z,990.00
2023-01-19T00:39:17.827Z,990.02
2023-01-19T00:40:17.825Z,990.05
2023-01-19T00:41:17.830Z,990.08
2023-01-19T00:42:17.790Z,990.14
2023-01-19T00:43:17.801Z,990.09
2023-01-19T00:44:17.772Z,990.12
2023-01-19T00:45:17.771Z,990.14
2023-01-19T00:46:17.757Z,990.12
2023-01-19T00:47:17.737Z,990.15
2023-01-19T00:48:17.991Z,990.16
2023-01-19T00:49:17.718Z,990.12
2023-01-19T00:50:17.696Z,990.18
2023-01-19T00:51:17.687Z,990.14
2023-01-19T00:52:17.657Z,990.13
2023-01-19T00:53:17.668Z,990.11
2023-01-19T00:54:17.660Z,990.11
2023-01-19T00:55:17.638Z,990.11
2023-01-19T00:56:17.619Z,990.09
2023-01-19T00:57:17.626Z,990.11
2023-01-19T00:58:17.603Z,990.09
2023-01-19T00:59:17.596Z,990.04
2023-01-19T01:00:17.619Z,990.05
2023-01-19T01:01:17.679Z,990.12
2023-01-19T01:02:17.760Z,990.03
2023-01-19T01:03:17.564Z,990.07
2023-01-19T01:04:17.525Z,990.11
2023-01-19T01:05:17.539Z,990.13
2023-01-19T01:06:17.486Z,990.10
2023-01-19T01:07:17.476Z,990.12
2023-01-19T01:08:17.457Z,990.11
2023-01-19T01:09:17.491Z,990.11
2023-01-19T01:10:17.451Z,990.11
2023-01-19T01:11:17.426Z,990.16
2023-01-19T01:12:17.423Z,990.14
2023-01-19T01:13:21.088Z,990.20
2023-01-19T01:14:18.408Z,990.17
2023-01-19T01:15:17.375Z,990.17
2023-01-19T01:16:17.406Z,990.16
2023-01-19T01:17:17.355Z,990.15
2023-01-19T01:18:17.335Z,990.14
2023-01-19T01:19:17.344Z,990.15
2023-01-19T01:20:17.305Z,990.17
2023-01-19T01:21:17.295Z,990.18
2023-01-19T01:22:17.284Z,990.19
2023-01-19T01:23:17.274Z,990.19
2023-01-19T01:24:17.274Z,990.19
2023-01-19T01:25:17.255Z,990.21
2023-01-19T01:26:17.235Z,990.24
2023-01-19T01:27:17.224Z,990.25
2023-01-19T01:28:17.206Z,990.24
2023-01-19T01:29:17.205Z,990.19
2023-01-19T01:30:17.206Z,990.25
2023-01-19T01:31:17.217Z,990.24
2023-01-19T01:32:17.154Z,990.22
2023-01-19T01:33:40.404Z,990.18
2023-01-19T01:34:18.126Z,990.21
2023-01-19T01:35:17.238Z,990.22
2023-01-19T01:36:17.112Z,990.24
2023-01-19T01:37:17.094Z,990.17
2023-01-19T01:38:17.088Z,990.20
2023-01-19T01:39:17.102Z,990.19
2023-01-19T01:40:17.074Z,990.21
2023-01-19T01:41:17.043Z,990.21
2023-01-19T01:42:17.032Z,990.23
2023-01-19T01:43:17.028Z,990.26
2023-01-19T01:44:17.007Z,990.26
2023-01-19T01:45:17.015Z,990.29
2023-01-19T01:46:17.264Z,990.26
2023-01-19T01:47:16.964Z,990.26
2023-01-19T01:48:16.951Z,990.26
2023-01-19T01:49:16.934Z,990.29
2023-01-19T01:50:16.948Z,990.25
2023-01-19T01:51:16.925Z,990.25
2023-01-19T01:52:16.927Z,990.27
2023-01-19T01:53:16.883Z,990.22
2023-01-19T01:54:16.906Z,990.21
2023-01-19T01:55:16.890Z,990.25
2023-01-19T01:56:16.869Z,990.23
2023-01-19T01:57:16.877Z,990.27
2023-01-19T01:58:16.821Z,990.25
2023-01-19T01:59:16.812Z,990.28
2023-01-19T02:00:16.823Z,990.29
2023-01-19T02:01:16.874Z,990.29
2023-01-19T02:02:16.773Z,990.28
2023-01-19T02:03:23.952Z,990.22
2023-01-19T02:04:16.758Z,990.25
2023-01-19T02:05:16.730Z,990.25
2023-01-19T02:06:16.753Z,990.26
2023-01-19T02:07:16.710Z,990.25
2023-01-19T02:08:16.690Z,990.24
2023-01-19T02:09:16.687Z,990.26
2023-01-19T02:10:16.682Z,990.21
2023-01-19T02:11:16.677Z,990.21
2023-01-19T02:12:16.646Z,990.18
2023-01-19T02:13:16.635Z,990.18
2023-01-19T02:14:16.608Z,990.16
2023-01-19T02:15:16.600Z,990.17
2023-01-19T02:16:16.706Z,990.19
2023-01-19T02:17:16.568Z,990.16
2023-01-19T02:18:16.583Z,990.21
2023-01-19T02:19:16.560Z,990.18
2023-01-19T02:20:19.438Z,990.18
2023-01-19T02:21:16.546Z,990.25
2023-01-19T02:22:16.519Z,990.23
2023-01-19T02:23:16.508Z,990.26
2023-01-19T02:24:16.505Z,990.28
2023-01-19T02:25:16.477Z,990.27
2023-01-19T02:26:16.472Z,990.23
2023-01-19T02:27:16.470Z,990.22
2023-01-19T02:28:16.438Z,990.25
2023-01-19T02:29:16.423Z,990.22
2023-01-19T02:30:16.420Z,990.17
2023-01-19T02:31:16.396Z,990.23
2023-01-19T02:32:16.426Z,990.18
2023-01-19T02:33:16.376Z,990.19
2023-01-19T02:34:16.367Z,990.16
2023-01-19T02:35:16.346Z,990.20
2023-01-19T02:36:16.371Z,990.14
2023-01-19T02:37:16.355Z,990.18
2023-01-19T02:38:16.321Z,990.17
2023-01-19T02:39:16.306Z,990.13
2023-01-19T02:40:16.289Z,990.13
2023-01-19T02:41:16.281Z,990.12
2023-01-19T02:42:16.286Z,990.10
2023-01-19T02:43:16.247Z,990.08
2023-01-19T02:44:16.235Z,990.06
2023-01-19T02:45:16.215Z,990.06
2023-01-19T02:46:16.232Z,990.05
2023-01-19T02:47:16.209Z,990.06
2023-01-19T02:48:16.189Z,990.03
2023-01-19T02:49:16.185Z,990.03
2023-01-19T02:50:16.168Z,990.02
2023-01-19T02:51:16.145Z,990.03
2023-01-19T02:52:16.155Z,989.97
2023-01-19T02:53:16.125Z,990.04
2023-01-19T02:54:16.245Z,990.02
2023-01-19T02:55:16.095Z,990.03
2023-01-19T02:56:16.113Z,990.04
2023-01-19T02:57:16.085Z,990.04
2023-01-19T02:58:16.054Z,990.06
2023-01-19T02:59:16.048Z,990.03
2023-01-19T03:00:16.027Z,990.04
2023-01-19T03:01:16.102Z,990.04
2023-01-19T03:02:16.123Z,990.06
2023-01-19T03:03:15.988Z,990.06
2023-01-19T03:04:15.993Z,990.03
2023-01-19T03:05:15.963Z,990.05
2023-01-19T03:06:15.961Z,990.00
2023-01-19T03:07:15.951Z,990.01
2023-01-19T03:08:15.934Z,990.03
2023-01-19T03:09:15.928Z,990.05
2023-01-19T03:10:15.915Z,990.02
2023-01-19T03:11:15.888Z,990.03
2023-01-19T03:12:15.881Z,990.01
2023-01-19T03:13:15.887Z,990.01
2023-01-19T03:14:15.860Z,989.97
2023-01-19T03:15:15.843Z,989.99
2023-01-19T03:16:15.847Z,989.96
2023-01-19T03:17:15.813Z,990.01
2023-01-19T03:18:15.833Z,989.97
2023-01-19T03:19:15.781Z,990.03
2023-01-19T03:20:15.780Z,990.00
2023-01-19T03:21:15.751Z,990.00
2023-01-19T03:22:15.754Z,989.99
2023-01-19T03:23:15.752Z,990.01
2023-01-19T03:24:15.740Z,990.02
2023-01-19T03:25:15.711Z,990.01
2023-01-19T03:26:15.700Z,990.00
2023-01-19T03:27:15.693Z,989.96
2023-01-19T03:28:15.683Z,989.96
2023-01-19T03:29:15.677Z,990.00
2023-01-19T03:30:15.662Z,989.94
2023-01-19T03:31:15.642Z,989.94
2023-01-19T03:32:15.627Z,989.97
2023-01-19T03:33:15.606Z,989.98
2023-01-19T03:34:15.591Z,990.02
2023-01-19T03:35:15.596Z,989.96
2023-01-19T03:36:15.571Z,989.99
2023-01-19T03:37:15.555Z,989.98
2023-01-19T03:38:15.541Z,989.95
2023-01-19T03:39:15.522Z,989.97
2023-01-19T03:40:15.551Z,989.99
2023-01-19T03:41:15.549Z,989.98
2023-01-19T03:42:15.511Z,989.98
2023-01-19T03:43:15.492Z,990.00
2023-01-19T03:44:15.474Z,990.01
2023-01-19T03:45:15.460Z,989.99
2023-01-19T03:46:15.498Z,990.00
2023-01-19T03:47:15.419Z,989.96
2023-01-19T03:48:15.409Z,989.94
2023-01-19T03:49:15.401Z,989.95
2023-01-19T03:50:15.408Z,989.99
2023-01-19T03:51:15.380Z,989.97
2023-01-19T03:52:15.368Z,990.04
2023-01-19T03:53:15.338Z,990.04
2023-01-19T03:54:15.333Z,990.06
2023-01-19T03:55:15.352Z,990.06
2023-01-19T03:56:15.310Z,990.08
2023-01-19T03:57:15.304Z,990.13
2023-01-19T03:58:15.297Z,990.08
2023-01-19T03:59:15.278Z,990.09
2023-01-19T04:00:15.278Z,990.12
2023-01-19T04:01:15.365Z,990.12
2023-01-19T04:02:15.307Z,990.07
2023-01-19T04:03:15.223Z,990.13
2023-01-19T04:04:15.222Z,990.14
2023-01-19T04:05:15.211Z,990.13
2023-01-19T04:06:15.189Z,990.14
2023-01-19T04:07:15.168Z,990.11
2023-01-19T04:08:15.176Z,990.10
2023-01-19T04:09:15.146Z,990.05
2023-01-19T04:10:15.151Z,990.06
2023-01-19T04:11:15.118Z,990.07
2023-01-19T04:12:15.124Z,990.05
2023-01-19T04:13:15.088Z,990.10
2023-01-19T04:14:15.090Z,990.11
2023-01-19T04:15:15.085Z,990.13
2023-01-19T04:16:15.132Z,990.05
2023-01-19T04:17:15.058Z,990.07
2023-01-19T04:18:15.026Z,990.06
2023-01-19T04:19:15.016Z,990.08
2023-01-19T04:20:15.016Z,990.07
2023-01-19T04:21:15.025Z,990.06
2023-01-19T04:22:15.011Z,990.03
2023-01-19T04:23:14.987Z,990.05
2023-01-19T04:24:14.955Z,989.99
2023-01-19T04:25:14.943Z,990.03
2023-01-19T04:26:14.971Z,990.05
2023-01-19T04:27:14.917Z,990.02
2023-01-19T04:28:14.908Z,990.03
2023-01-19T04:29:14.886Z,990.08
2023-01-19T04:30:14.876Z,990.08
2023-01-19T04:31:14.912Z,990.08
2023-01-19T04:32:14.859Z,990.11
2023-01-19T04:33:14.837Z,990.09
2023-01-19T04:34:14.825Z,990.09
2023-01-19T04:35:14.813Z,990.06
2023-01-19T04:36:14.816Z,990.06
2023-01-19T04:37:14.794Z,990.05
2023-01-19T04:38:14.775Z,990.10
2023-01-19T04:39:14.763Z,990.06
2023-01-19T04:40:14.756Z,990.05
2023-01-19T04:41:14.752Z,990.05
2023-01-19T04:42:14.746Z,990.08
2023-01-19T04:43:14.704Z,990.04
2023-01-19T04:44:14.693Z,990.05
2023-01-19T04:45:14.684Z,990.07
2023-01-19T04:46:14.693Z,990.09
2023-01-19T04:47:14.652Z,990.09
2023-01-19T04:48:14.645Z,990.12
2023-01-19T04:49:14.640Z,990.09
2023-01-19T04:50:14.613Z,990.11
2023-01-19T04:51:14.629Z,990.13
2023-01-19T04:52:14.593Z,990.14
2023-01-19T04:53:14.572Z,990.19
2023-01-19T04:54:14.589Z,990.17
2023-01-19T04:55:14.553Z,990.15
2023-01-19T04:56:14.566Z,990.19
2023-01-19T04:57:14.532Z,990.21
2023-01-19T04:58:14.521Z,990.20
2023-01-19T04:59:14.511Z,990.20
2023-01-19T05:00:14.499Z,990.18
2023-01-19T05:01:14.546Z,990.21
2023-01-19T05:02:14.523Z,990.22
2023-01-19T05:03:14.512Z,990.21
2023-01-19T05:04:14.448Z,990.17
2023-01-19T05:05:14.451Z,990.19
2023-01-19T05:06:14.443Z,990.21
2023-01-19T05:07:14.413Z,990.21
2023-01-19T05:08:14.393Z,990.22
2023-01-19T05:09:14.400Z,990.22
2023-01-19T05:10:14.383Z,990.21
2023-01-19T05:11:14.351Z,990.22
2023-01-19T05:12:14.371Z,990.18
2023-01-19T05:13:14.321Z,990.24
2023-01-19T05:14:14.312Z,990.23
2023-01-19T05:15:14.311Z,990.21
2023-01-19T05:16:14.333Z,990.18
2023-01-19T05:17:14.297Z,990.25
2023-01-19T05:18:14.265Z,990.26
2023-01-19T05:19:14.250Z,990.22
2023-01-19T05:20:16.361Z,990.27
2023-01-19T05:21:14.228Z,990.27
2023-01-19T05:22:14.240Z,990.28
2023-01-19T05:23:14.199Z,990.28
2023-01-19T05:24:14.211Z,990.28
2023-01-19T05:25:14.182Z,990.28
2023-01-19T05:26:14.199Z,990.29
2023-01-19T05:27:14.161Z,990.29
2023-01-19T05:28:14.140Z,990.26
2023-01-19T05:29:14.144Z,990.34
2023-01-19T05:30:14.120Z,990.31
2023-01-19T05:31:14.175Z,990.37
2023-01-19T05:32:14.120Z,990.38
2023-01-19T05:33:14.080Z,990.39
2023-01-19T05:34:14.089Z,990.37
2023-01-19T05:35:14.629Z,990.39
2023-01-19T05:36:14.051Z,990.41
2023-01-19T05:37:14.040Z,990.40
2023-01-19T05:38:15.625Z,990.38
2023-01-19T05:39:14.061Z,990.40
2023-01-19T05:40:13.989Z,990.35
2023-01-19T05:41:13.989Z,990.37
2023-01-19T05:42:13.979Z,990.39
2023-01-19T05:43:13.943Z,990.39
2023-01-19T05:44:14.009Z,990.38
2023-01-19T05:45:13.917Z,990.40
2023-01-19T05:46:13.923Z,990.38
2023-01-19T05:47:13.948Z,990.35
2023-01-19T05:48:13.906Z,990.33
2023-01-19T05:49:13.871Z,990.28
2023-01-19T05:50:13.858Z,990.30
2023-01-19T05:51:13.848Z,990.33
2023-01-19T05:52:13.855Z,990.31
2023-01-19T05:53:13.845Z,990.28
2023-01-19T05:54:13.817Z,990.35
2023-01-19T05:55:15.472Z,990.35
2023-01-19T05:56:13.795Z,990.37
2023-01-19T05:57:13.808Z,990.39
2023-01-19T05:58:13.760Z,990.37
2023-01-19T05:59:13.804Z,990.40
2023-01-19T06:00:13.728Z,990.41
2023-01-19T06:01:13.747Z,990.41
2023-01-19T06:02:13.841Z,990.41
2023-01-19T06:03:13.739Z,990.38
2023-01-19T06:04:13.694Z,990.37
2023-01-19T06:05:13.737Z,990.38
2023-01-19T06:06:13.656Z,990.38
2023-01-19T06:07:13.666Z,990.41
2023-01-19T06:08:13.645Z,990.35
2023-01-19T06:09:13.631Z,990.34
2023-01-19T06:10:13.626Z,990.34
2023-01-19T06:11:13.593Z,990.35
2023-01-19T06:12:13.614Z,990.34
2023-01-19T06:13:13.644Z,990.38
2023-01-19T06:14:13.559Z,990.42
2023-01-19T06:15:13.548Z,990.46
2023-01-19T06:16:13.565Z,990.43
2023-01-19T06:17:13.554Z,990.43
2023-01-19T06:18:13.895Z,990.41
2023-01-19T06:19:13.494Z,990.43
2023-01-19T06:20:13.485Z,990.47
2023-01-19T06:21:13.479Z,990.45
2023-01-19T06:22:13.488Z,990.48
2023-01-19T06:23:13.443Z,990.49
2023-01-19T06:24:14.530Z,990.51
2023-01-19T06:25:13.437Z,990.51
2023-01-19T06:26:13.413Z,990.45
2023-01-19T06:27:13.407Z,990.49
2023-01-19T06:28:13.474Z,990.51
2023-01-19T06:29:13.364Z,990.53
2023-01-19T06:30:13.358Z,990.49
2023-01-19T06:31:13.436Z,990.51
2023-01-19T06:32:13.346Z,990.47
2023-01-19T06:33:13.333Z,990.49
2023-01-19T06:34:13.326Z,990.49
2023-01-19T06:35:13.289Z,990.51
2023-01-19T06:36:13.275Z,990.50
2023-01-19T06:37:13.283Z,990.51
2023-01-19T06:38:13.277Z,990.52
2023-01-19T06:39:13.253Z,990.53
2023-01-19T06:40:14.500Z,990.53
2023-01-19T06:41:13.277Z,990.53
2023-01-19T06:42:13.209Z,990.53
2023-01-19T06:43:13.202Z,990.53
2023-01-19T06:44:13.183Z,990.49
2023-01-19T06:45:13.252Z,990.49
2023-01-19T06:46:13.204Z,990.51
2023-01-19T06:47:15.723Z,990.53
2023-01-19T06:48:13.141Z,990.51
2023-01-19T06:49:13.112Z,990.50
2023-01-19T06:50:13.104Z,990.51
2023-01-19T06:51:13.092Z,990.49
2023-01-19T06:52:13.074Z,990.50
2023-01-19T06:53:13.102Z,990.48
2023-01-19T06:54:13.057Z,990.50
2023-01-19T06:55:13.042Z,990.52
2023-01-19T06:56:13.025Z,990.50
2023-01-19T06:57:13.027Z,990.54
2023-01-19T06:58:13.010Z,990.53
2023-01-19T06:59:13.020Z,990.47
2023-01-19T07:00:12.977Z,990.51
2023-01-19T07:01:13.044Z,990.61
2023-01-19T07:02:26.154Z,990.59
2023-01-19T07:03:14.019Z,990.59
2023-01-19T07:04:12.931Z,990.62
2023-01-19T07:05:12.911Z,990.64
2023-01-19T07:06:12.908Z,990.63
2023-01-19T07:07:12.889Z,990.65
2023-01-19T07:08:12.903Z,990.65
2023-01-19T07:09:12.862Z,990.66
2023-01-19T07:10:12.850Z,990.69
2023-01-19T07:11:25.713Z,990.65
2023-01-19T07:12:13.853Z,990.68
2023-01-19T07:13:12.839Z,990.70
2023-01-19T07:14:12.877Z,990.68
2023-01-19T07:15:12.792Z,990.70
2023-01-19T07:16:12.760Z,990.70
2023-01-19T07:17:12.755Z,990.71
2023-01-19T07:18:12.758Z,990.76
2023-01-19T07:19:12.729Z,990.71
2023-01-19T07:20:12.729Z,990.71
2023-01-19T07:21:12.719Z,990.69
2023-01-19T07:22:12.701Z,990.78
2023-01-19T07:23:12.717Z,990.73
2023-01-19T07:24:12.708Z,990.75
2023-01-19T07:25:12.724Z,990.77
2023-01-19T07:26:12.659Z,990.75
2023-01-19T07:27:12.630Z,990.82
2023-01-19T07:28:12.628Z,990.83
2023-01-19T07:29:12.631Z,990.82
2023-01-19T07:30:12.598Z,990.82
2023-01-19T07:31:12.663Z,990.80
2023-01-19T07:32:12.563Z,990.81
2023-01-19T07:33:12.578Z,990.83
2023-01-19T07:34:12.659Z,990.81
2023-01-19T07:35:12.565Z,990.82
2023-01-19T07:36:12.527Z,990.82
2023-01-19T07:37:12.508Z,990.82
2023-01-19T07:38:12.510Z,990.83
2023-01-19T07:39:12.487Z,990.82
2023-01-19T07:40:12.479Z,990.83
2023-01-19T07:41:12.467Z,990.84
2023-01-19T07:42:12.486Z,990.83
2023-01-19T07:43:12.448Z,990.85
2023-01-19T07:44:12.463Z,990.83
2023-01-19T07:45:12.408Z,990.83
2023-01-19T07:46:12.473Z,990.86
2023-01-19T07:47:12.388Z,990.87
2023-01-19T07:48:12.403Z,990.84
2023-01-19T07:49:12.357Z,990.82
2023-01-19T07:50:12.338Z,990.88
2023-01-19T07:51:12.941Z,990.86
2023-01-19T07:52:12.310Z,990.91
2023-01-19T07:53:12.335Z,990.90
2023-01-19T07:54:12.288Z,990.89
2023-01-19T07:55:12.284Z,990.90
2023-01-19T07:56:12.262Z,990.89
2023-01-19T07:57:12.268Z,990.90
2023-01-19T07:58:12.255Z,990.92
2023-01-19T07:59:12.226Z,990.95
2023-01-19T08:00:12.218Z,990.91
2023-01-19T08:01:12.289Z,990.92
2023-01-19T08:02:12.241Z,990.97
2023-01-19T08:03:12.196Z,990.95
2023-01-19T08:04:12.263Z,990.97
2023-01-19T08:05:12.166Z,990.98
2023-01-19T08:06:12.134Z,990.99
2023-01-19T08:07:19.279Z,990.98
2023-01-19T08:08:12.137Z,991.02
2023-01-19T08:09:12.101Z,991.10
2023-01-19T08:10:12.104Z,991.04
2023-01-19T08:11:12.076Z,991.05
2023-01-19T08:12:12.082Z,991.04
2023-01-19T08:13:12.059Z,991.09
2023-01-19T08:14:12.031Z,991.14
2023-01-19T08:15:12.020Z,991.15
2023-01-19T08:16:12.072Z,991.13
2023-01-19T08:17:12.007Z,991.15
2023-01-19T08:18:12.005Z,991.15
2023-01-19T08:19:11.976Z,991.15
2023-01-19T08:20:11.948Z,991.21
2023-01-19T08:21:11.953Z,991.17
2023-01-19T08:22:11.928Z,991.25
2023-01-19T08:23:11.948Z,991.23
2023-01-19T08:24:11.941Z,991.24
2023-01-19T08:25:11.905Z,991.23
2023-01-19T08:26:11.888Z,991.20
2023-01-19T08:27:11.863Z,991.21
2023-01-19T08:28:11.867Z,991.25
2023-01-19T08:29:11.870Z,991.26
2023-01-19T08:30:11.856Z,991.26
2023-01-19T08:31:20.905Z,991.30
2023-01-19T08:32:13.004Z,991.32
2023-01-19T08:33:11.798Z,991.35
2023-01-19T08:34:11.796Z,991.34
2023-01-19T08:35:11.777Z,991.34
2023-01-19T08:36:11.746Z,991.40
2023-01-19T08:37:11.758Z,991.40
2023-01-19T08:38:11.781Z,991.42
2023-01-19T08:39:11.821Z,991.43
2023-01-19T08:40:11.699Z,991.43
2023-01-19T08:41:11.687Z,991.50
2023-01-19T08:42:11.687Z,991.47
2023-01-19T08:43:11.678Z,991.50
2023-01-19T08:44:11.673Z,991.48
2023-01-19T08:45:11.656Z,991.47
2023-01-19T08:46:11.692Z,991.48
2023-01-19T08:47:11.653Z,991.48
2023-01-19T08:48:11.609Z,991.47
2023-01-19T08:49:11.620Z,991.49
2023-01-19T08:50:11.575Z,991.44
2023-01-19T08:51:11.576Z,991.50
2023-01-19T08:52:11.551Z,991.52
2023-01-19T08:53:11.552Z,991.51
2023-01-19T08:54:11.548Z,991.49
2023-01-19T08:55:11.517Z,991.49
2023-01-19T08:56:11.503Z,991.51
2023-01-19T08:57:11.494Z,991.50
2023-01-19T08:58:11.481Z,991.49
2023-01-19T08:59:13.067Z,991.45
2023-01-19T09:00:11.449Z,991.45
2023-01-19T09:01:11.513Z,991.40
2023-01-19T09:02:11.472Z,991.41
2023-01-19T09:03:11.463Z,991.45
2023-01-19T09:04:11.416Z,991.45
2023-01-19T09:05:11.431Z,991.45
2023-01-19T09:06:11.373Z,991.47
2023-01-19T09:07:11.371Z,991.46
2023-01-19T09:08:11.337Z,991.46
2023-01-19T09:09:11.347Z,991.49
2023-01-19T09:10:11.315Z,991.44
2023-01-19T09:11:11.323Z,991.50
2023-01-19T09:12:11.302Z,991.51
2023-01-19T09:13:11.287Z,991.51
2023-01-19T09:14:11.275Z,991.50
2023-01-19T09:15:11.257Z,991.50
2023-01-19T09:16:11.285Z,991.49
2023-01-19T09:17:11.235Z,991.48
2023-01-19T09:18:11.221Z,991.50
2023-01-19T09:19:11.254Z,991.51
2023-01-19T09:20:11.195Z,991.48
2023-01-19T09:21:11.182Z,991.46
2023-01-19T09:22:11.173Z,991.51
2023-01-19T09:23:11.159Z,991.50
2023-01-19T09:24:11.162Z,991.50
2023-01-19T09:25:11.132Z,991.51
2023-01-19T09:26:11.114Z,991.47
2023-01-19T09:27:11.112Z,991.50
2023-01-19T09:28:11.100Z,991.53
2023-01-19T09:29:11.092Z,991.52
2023-01-19T09:30:11.058Z,991.54
2023-01-19T09:31:11.199Z,991.56
2023-01-19T09:32:11.042Z,991.53
2023-01-19T09:33:11.031Z,991.54
2023-01-19T09:34:11.026Z,991.57
2023-01-19T09:35:11.006Z,991.51
2023-01-19T09:36:10.993Z,991.53
2023-01-19T09:37:10.972Z,991.60
2023-01-19T09:38:10.980Z,991.60
2023-01-19T09:39:10.971Z,991.58
2023-01-19T09:40:10.933Z,991.64
2023-01-19T09:41:10.924Z,991.68
2023-01-19T09:42:10.910Z,991.61
2023-01-19T09:43:10.911Z,991.64
2023-01-19T09:44:10.905Z,991.67
2023-01-19T09:45:12.174Z,991.65
2023-01-19T09:46:10.856Z,991.60
2023-01-19T09:47:10.843Z,991.68
2023-01-19T09:48:10.831Z,991.69
2023-01-19T09:49:10.865Z,991.66
2023-01-19T09:50:10.808Z,991.64
2023-01-19T09:51:10.791Z,991.68
2023-01-19T09:52:10.783Z,991.71
2023-01-19T09:53:10.770Z,991.71
2023-01-19T09:54:10.773Z,991.71
2023-01-19T09:55:10.749Z,991.77
2023-01-19T09:56:10.734Z,991.74
2023-01-19T09:57:10.734Z,991.74
2023-01-19T09:58:10.701Z,991.78
2023-01-19T09:59:10.722Z,991.77
2023-01-19T10:00:10.672Z,991.75
2023-01-19T10:01:10.749Z,991.77
2023-01-19T10:02:10.659Z,991.78
2023-01-19T10:03:10.702Z,991.79
2023-01-19T10:04:10.650Z,991.75
2023-01-19T10:05:10.614Z,991.73
2023-01-19T10:06:10.602Z,991.75
2023-01-19T10:07:10.598Z,991.71
2023-01-19T10:08:10.579Z,991.75
2023-01-19T10:09:10.553Z,991.78
2023-01-19T10:10:10.576Z,991.74
2023-01-19T10:11:10.548Z,991.77
2023-01-19T10:12:10.512Z,991.70
2023-01-19T10:13:10.512Z,991.70
2023-01-19T10:14:11.219Z,991.72
2023-01-19T10:15:10.500Z,991.73
2023-01-19T10:16:10.517Z,991.69
2023-01-19T10:17:10.449Z,991.68
2023-01-19T10:18:10.440Z,991.67
2023-01-19T10:19:10.430Z,991.68
2023-01-19T10:20:10.437Z,991.74
2023-01-19T10:21:10.471Z,991.73
2023-01-19T10:22:10.411Z,991.75
2023-01-19T10:23:10.429Z,991.72
2023-01-19T10:24:10.385Z,991.79
2023-01-19T10:25:10.371Z,991.74
2023-01-19T10:26:10.346Z,991.74
2023-01-19T10:27:10.370Z,991.76
2023-01-19T10:28:10.318Z,991.73
2023-01-19T10:29:11.712Z,991.78
2023-01-19T10:30:10.307Z,991.82
2023-01-19T10:31:10.387Z,991.71
2023-01-19T10:32:10.466Z,991.73
2023-01-19T10:33:10.248Z,991.70
2023-01-19T10:34:10.238Z,991.73
2023-01-19T10:35:10.288Z,991.76
2023-01-19T10:36:10.210Z,991.69
2023-01-19T10:37:10.227Z,991.70
2023-01-19T10:38:10.193Z,991.69
2023-01-19T10:39:10.174Z,991.66
2023-01-19T10:40:10.215Z,991.67
2023-01-19T10:41:10.149Z,991.67
2023-01-19T10:42:10.128Z,991.69
2023-01-19T10:43:10.122Z,991.70
2023-01-19T10:44:10.158Z,991.73
2023-01-19T10:45:10.136Z,991.76
2023-01-19T10:46:10.205Z,991.74
2023-01-19T10:47:10.143Z,991.73
2023-01-19T10:48:10.062Z,991.69
2023-01-19T10:49:10.123Z,991.70
2023-01-19T10:50:10.084Z,991.71
2023-01-19T10:51:10.017Z,991.75
2023-01-19T10:52:10.055Z,991.66
2023-01-19T10:53:09.995Z,991.72
2023-01-19T10:54:10.019Z,991.75
2023-01-19T10:55:09.984Z,991.75
2023-01-19T10:56:10.046Z,991.77
2023-01-19T10:57:09.953Z,991.74
2023-01-19T10:58:09.918Z,991.74
2023-01-19T10:59:09.938Z,991.76
2023-01-19T11:00:09.981Z,991.76
2023-01-19T11:01:10.037Z,991.73
2023-01-19T11:02:10.066Z,991.78
2023-01-19T11:03:09.947Z,991.79
2023-01-19T11:04:09.855Z,991.78
2023-01-19T11:05:09.847Z,991.83
2023-01-19T11:06:09.818Z,991.80
2023-01-19T11:07:09.808Z,991.79
2023-01-19T11:08:09.799Z,991.77
2023-01-19T11:09:09.786Z,991.76
2023-01-19T11:10:09.826Z,991.75
2023-01-19T11:11:09.812Z,991.74
2023-01-19T11:12:09.735Z,991.75
2023-01-19T11:13:09.813Z,991.76
2023-01-19T11:14:09.715Z,991.75
2023-01-19T11:15:09.744Z,991.75
2023-01-19T11:16:12.252Z,991.72
2023-01-19T11:17:09.715Z,991.74
2023-01-19T11:18:09.659Z,991.73
2023-01-19T11:19:09.645Z,991.74
2023-01-19T11:20:09.660Z,991.79
2023-01-19T11:21:09.618Z,991.74
2023-01-19T11:22:09.620Z,991.74
2023-01-19T11:23:09.604Z,991.76
2023-01-19T11:24:09.606Z,991.76
2023-01-19T11:25:09.584Z,991.72
2023-01-19T11:26:09.580Z,991.72
2023-01-19T11:27:09.556Z,991.78
2023-01-19T11:28:09.544Z,991.75
2023-01-19T11:29:09.535Z,991.76
2023-01-19T11:30:09.535Z,991.72
2023-01-19T11:31:09.523Z,991.77
2023-01-19T11:32:10.100Z,991.77
2023-01-19T11:33:09.476Z,991.74
2023-01-19T11:34:09.465Z,991.77
2023-01-19T11:35:09.465Z,991.76
2023-01-19T11:36:09.435Z,991.78
2023-01-19T11:37:09.416Z,991.77
2023-01-19T11:38:09.415Z,991.74
2023-01-19T11:39:09.394Z,991.71
2023-01-19T11:40:09.406Z,991.77
2023-01-19T11:41:09.385Z,991.70
2023-01-19T11:42:09.355Z,991.72
2023-01-19T11:43:09.352Z,991.68
2023-01-19T11:44:09.350Z,991.75
2023-01-19T11:45:09.334Z,991.75
2023-01-19T11:46:09.343Z,991.75
2023-01-19T11:47:09.282Z,991.76
2023-01-19T11:48:09.277Z,991.74
2023-01-19T11:49:09.270Z,991.73
2023-01-19T11:50:09.254Z,991.82
2023-01-19T11:51:09.255Z,991.84
2023-01-19T11:52:09.234Z,991.77
2023-01-19T11:53:09.204Z,991.79
2023-01-19T11:54:09.217Z,991.79
2023-01-19T11:55:09.183Z,991.85
2023-01-19T11:56:09.215Z,991.77
2023-01-19T11:57:09.164Z,991.78
2023-01-19T11:58:09.145Z,991.80
2023-01-19T11:59:09.143Z,991.75
2023-01-19T12:00:09.204Z,991.78
2023-01-19T12:01:09.168Z,991.76
2023-01-19T12:02:09.159Z,991.78
2023-01-19T12:03:09.135Z,991.77
2023-01-19T12:04:09.076Z,991.80
2023-01-19T12:05:09.053Z,991.82
2023-01-19T12:06:09.063Z,991.80
2023-01-19T12:07:09.045Z,991.81
2023-01-19T12:08:09.180Z,991.84
2023-01-19T12:09:09.001Z,991.84
2023-01-19T12:10:08.996Z,991.84
2023-01-19T12:11:09.001Z,991.85
2023-01-19T12:12:09.972Z,991.86
2023-01-19T12:13:08.956Z,991.85
2023-01-19T12:14:08.957Z,991.86
2023-01-19T12:15:08.924Z,991.84
2023-01-19T12:16:08.954Z,991.86
2023-01-19T12:17:08.893Z,991.88
2023-01-19T12:18:08.882Z,991.85
2023-01-19T12:19:08.864Z,991.88
2023-01-19T12:20:08.863Z,991.87
2023-01-19T12:21:08.883Z,991.83
2023-01-19T12:22:08.845Z,991.85
2023-01-19T12:23:08.896Z,991.85
2023-01-19T12:24:08.879Z,991.83
2023-01-19T12:25:08.796Z,991.81
2023-01-19T12:26:08.809Z,991.79
2023-01-19T12:27:08.762Z,991.77
2023-01-19T12:28:08.783Z,991.77